Time;durP1;ratioP1;P1;durP2;ratioP2;P2;SDS_P1;SDS_P2;PMS_P1;PMS_P2;Temp;Humidity;BMP_temperature;BMP_pressure;BME280_temperature;BME280_humidity;BME280_pressure;Samples;Min_cycle;Max_cycle;Signal;HPM_P1;HPM_P2
2023/03/22 00:01:11;;;;;;;5.70;5.20;;;11.30;68.70;;;;;;6253884;28;20549;-65
2023/03/22 00:04:14;;;;;;;4.70;3.90;;;11.20;69.20;;;;;;6253249;28;20996;-65
2023/03/22 00:07:17;;;;;;;4.30;3.90;;;11.20;69.70;;;;;;6253245;28;20478;-68
2023/03/22 00:10:20;;;;;;;4.30;3.90;;;11.20;70.40;;;;;;6253712;28;20479;-67
2023/03/22 00:13:25;;;;;;;4.60;4.20;;;11.10;71.10;;;;;;6253170;28;21249;-65
2023/03/22 00:16:28;;;;;;;4.60;3.63;;;11.10;71.70;;;;;;6253090;28;20466;-67
2023/03/22 00:19:32;;;;;;;8.23;4.20;;;11.10;72.60;;;;;;6253083;28;20475;-66
2023/03/22 00:22:36;;;;;;;5.00;3.30;;;11.00;72.90;;;;;;6253188;28;21059;-65
2023/03/22 00:25:39;;;;;;;4.77;3.80;;;10.90;73.40;;;;;;6253084;28;20486;-66
2023/03/22 00:28:44;;;;;;;4.53;3.63;;;10.90;74.20;;;;;;6256423;28;20473;-66
2023/03/22 00:31:47;;;;;;;4.17;3.53;;;10.90;74.60;;;;;;6277570;28;20944;-65
2023/03/22 00:34:51;;;;;;;5.73;4.30;;;10.80;75.20;;;;;;6277167;28;20470;-66
2023/03/22 00:37:54;;;;;;;5.03;4.50;;;10.80;75.30;;;;;;6277189;28;20476;-67
2023/03/22 00:41:05;;;;;;;4.33;3.93;;;10.80;75.80;;;;;;6277401;28;20470;-66
2023/03/22 00:44:09;;;;;;;7.17;5.40;;;10.80;76.50;;;;;;6277009;28;20474;-67
2023/03/22 00:47:13;;;;;;;6.13;4.37;;;10.60;76.90;;;;;;6269468;28;20475;-62
2023/03/22 00:50:16;;;;;;;4.33;3.93;;;10.70;77.70;;;;;;6252567;28;20481;-61
2023/03/22 00:53:19;;;;;;;4.33;3.80;;;10.60;77.80;;;;;;6252203;28;20470;-62
2023/03/22 00:56:24;;;;;;;5.23;3.73;;;10.60;78.50;;;;;;6251796;28;20471;-62
2023/03/22 00:59:28;;;;;;;3.80;3.50;;;10.50;79.10;;;;;;6251542;28;20584;-62
2023/03/22 01:02:32;;;;;;;4.10;3.70;;;10.50;79.50;;;;;;6252024;28;20976;-62
2023/03/22 01:05:36;;;;;;;5.73;3.90;;;10.50;80.10;;;;;;6251818;28;20991;-63
2023/03/22 01:08:39;;;;;;;3.90;3.50;;;10.40;80.40;;;;;;6251550;28;20968;-63
2023/03/22 01:11:43;;;;;;;3.83;3.40;;;10.40;81.30;;;;;;6251622;28;20479;-63
2023/03/22 01:14:47;;;;;;;5.20;3.50;;;10.40;81.70;;;;;;6251359;28;20467;-62
2023/03/22 01:17:52;;;;;;;3.90;3.60;;;10.40;82.20;;;;;;6251239;28;20467;-63
2023/03/22 01:20:55;;;;;;;4.47;4.07;;;10.40;82.50;;;;;;6244669;28;20507;-62
2023/03/22 01:23:58;;;;;;;4.33;3.37;;;10.50;82.60;;;;;;6251179;28;20956;-63
2023/03/22 01:27:01;;;;;;;5.30;3.93;;;10.50;82.30;;;;;;6245063;28;20513;-66
2023/03/22 01:30:08;;;;;;;4.80;3.90;;;10.40;83.50;;;;;;6249767;28;20475;-65
2023/03/22 01:33:11;;;;;;;7.20;4.00;;;10.50;86.60;;;;;;6249746;28;20471;-65
2023/03/22 01:36:14;;;;;;;6.23;4.53;;;10.50;87.90;;;;;;6250176;28;20455;-66
2023/03/22 01:39:17;;;;;;;4.07;3.67;;;10.50;88.00;;;;;;6248728;28;20542;-66
2023/03/22 01:42:22;;;;;;;4.10;3.70;;;10.50;87.50;;;;;;6251444;28;20442;-66
2023/03/22 01:45:38;;;;;;;5.20;3.93;;;10.60;87.20;;;;;;6251201;28;20471;-65
2023/03/22 01:48:44;;;;;;;4.60;4.13;;;10.60;87.40;;;;;;6251514;28;20944;-66
2023/03/22 01:51:51;;;;;;;4.57;3.63;;;10.50;88.60;;;;;;6242964;28;20956;-65
2023/03/22 01:54:54;;;;;;;5.83;3.40;;;10.60;88.20;;;;;;6251004;28;20478;-65
2023/03/22 01:57:58;;;;;;;3.70;3.40;;;10.50;88.20;;;;;;6249977;28;20471;-66
2023/03/22 02:01:03;;;;;;;3.80;3.50;;;10.50;88.60;;;;;;6249368;28;20489;-66
2023/03/22 02:04:11;;;;;;;7.53;3.80;;;10.40;88.80;;;;;;6250204;28;20467;-66
2023/03/22 02:07:24;;;;;;;4.80;3.73;;;10.40;88.70;;;;;;6248272;28;20498;-65
2023/03/22 02:10:28;;;;;;;4.57;3.60;;;10.30;88.90;;;;;;6251036;28;20467;-65
2023/03/22 02:13:53;;;;;;;4.60;3.80;;;10.30;89.60;;;;;;6247872;28;20474;-65
2023/03/22 02:17:14;;;;;;;3.90;3.47;;;10.30;89.80;;;;;;6249507;28;20475;-65
2023/03/22 02:20:54;;;;;;;3.57;2.80;;;10.20;89.70;;;;;;6248179;28;20464;-65
2023/03/22 02:24:22;;;;;;;4.23;2.93;;;10.20;90.30;;;;;;6249528;28;20475;-66
2023/03/22 02:27:52;;;;;;;3.50;3.00;;;10.10;90.40;;;;;;6247925;28;20475;-66
2023/03/22 02:31:28;;;;;;;5.53;3.20;;;10.10;90.90;;;;;;6248653;28;20468;-66
2023/03/22 02:34:57;;;;;;;3.30;3.00;;;10.00;91.00;;;;;;6225969;28;21008;-66
2023/03/22 02:38:24;;;;;;;5.27;3.70;;;9.90;91.70;;;;;;6221667;28;20467;-66
2023/03/22 02:41:39;;;;;;;4.37;3.10;;;9.90;92.20;;;;;;6226038;28;20476;-66
2023/03/22 02:44:46;;;;;;;6.70;4.33;;;9.90;92.20;;;;;;6225908;28;20978;-65
2023/03/22 02:47:55;;;;;;;5.37;3.67;;;9.90;92.20;;;;;;6225968;28;20491;-66
2023/03/22 02:51:04;;;;;;;6.07;3.90;;;9.90;92.40;;;;;;6225982;28;20555;-65
2023/03/22 02:54:11;;;;;;;6.13;4.20;;;10.00;91.90;;;;;;6225513;28;20468;-65
2023/03/22 02:57:22;;;;;;;4.83;3.40;;;9.90;92.40;;;;;;6220410;28;20503;-65
2023/03/22 03:00:26;;;;;;;3.47;3.17;;;9.90;92.50;;;;;;6229123;28;20451;-66
2023/03/22 03:03:32;;;;;;;4.50;3.53;;;9.90;92.70;;;;;;6250364;28;20444;-66
2023/03/22 03:06:38;;;;;;;3.97;3.10;;;9.90;92.70;;;;;;6250019;28;20482;-66
2023/03/22 03:09:43;;;;;;;3.23;2.93;;;9.90;92.90;;;;;;6249621;28;20494;-66
2023/03/22 03:12:48;;;;;;;3.80;3.40;;;9.80;92.60;;;;;;6249979;28;20482;-65
2023/03/22 03:15:56;;;;;;;4.67;4.23;;;9.80;93.00;;;;;;6249569;28;20482;-65
2023/03/22 03:19:03;;;;;;;5.43;3.83;;;9.80;93.10;;;;;;6249522;28;20475;-65
2023/03/22 03:22:22;;;;;;;3.97;3.67;;;9.80;93.20;;;;;;6249542;28;20475;-65
2023/03/22 03:25:32;;;;;;;3.20;2.97;;;9.80;93.30;;;;;;6249640;28;20487;-66
2023/03/22 03:28:42;;;;;;;3.80;3.50;;;9.70;93.10;;;;;;6249121;28;20952;-66
2023/03/22 03:31:52;;;;;;;3.90;3.50;;;9.70;93.30;;;;;;6249288;28;20466;-65
2023/03/22 03:34:59;;;;;;;3.80;3.40;;;9.60;93.60;;;;;;6248849;28;20489;-64
2023/03/22 03:38:07;;;;;;;3.37;3.07;;;9.60;93.80;;;;;;6249408;28;20474;-66
2023/03/22 03:41:13;;;;;;;3.60;3.17;;;9.60;93.70;;;;;;6248920;28;20999;-66
2023/03/22 03:44:19;;;;;;;3.83;3.53;;;9.50;93.80;;;;;;6248863;28;20475;-66
2023/03/22 03:47:23;;;;;;;5.10;4.30;;;9.50;93.80;;;;;;6248885;28;20537;-66
2023/03/22 03:50:27;;;;;;;3.63;3.17;;;9.40;94.10;;;;;;6249182;28;20470;-66
2023/03/22 03:53:31;;;;;;;5.67;3.43;;;9.40;94.30;;;;;;6249028;28;20475;-65
2023/03/22 03:56:34;;;;;;;3.20;2.90;;;9.40;94.40;;;;;;6249350;28;20780;-66
2023/03/22 03:59:39;;;;;;;3.50;3.20;;;9.40;94.50;;;;;;6248983;28;20956;-65
2023/03/22 04:02:42;;;;;;;3.10;2.80;;;9.30;94.70;;;;;;6240269;28;20491;-66
2023/03/22 04:05:45;;;;;;;4.87;3.40;;;9.30;95.00;;;;;;6249113;28;20477;-66
2023/03/22 04:08:52;;;;;;;3.30;3.00;;;9.30;94.90;;;;;;6253476;28;20598;-65
2023/03/22 04:11:56;;;;;;;3.27;2.63;;;9.30;95.10;;;;;;6253567;28;20615;-66
2023/03/22 04:15:01;;;;;;;4.13;3.13;;;9.30;95.10;;;;;;6253040;28;20490;-64
2023/03/22 04:18:05;;;;;;;3.80;3.10;;;9.20;95.10;;;;;;6253424;28;20463;-66
2023/03/22 04:21:10;;;;;;;2.80;2.60;;;9.30;95.40;;;;;;6253158;28;20474;-66
2023/03/22 04:24:14;;;;;;;4.10;3.20;;;9.30;95.40;;;;;;6252964;28;20475;-65
2023/03/22 04:27:18;;;;;;;3.60;3.30;;;9.40;95.30;;;;;;6254677;28;20474;-66
2023/03/22 04:30:23;;;;;;;4.70;3.87;;;9.40;95.40;;;;;;6257857;28;20809;-65
2023/03/22 04:33:26;;;;;;;3.50;3.03;;;9.40;95.40;;;;;;6254615;28;20450;-65
2023/03/22 04:36:30;;;;;;;4.33;3.50;;;9.40;95.20;;;;;;6253177;28;20474;-66
2023/03/22 04:39:33;;;;;;;4.53;3.07;;;9.40;95.30;;;;;;6252979;28;20435;-66
2023/03/22 04:42:36;;;;;;;3.70;2.83;;;9.50;95.20;;;;;;6253036;28;20471;-65
2023/03/22 04:45:41;;;;;;;4.53;4.13;;;9.40;95.20;;;;;;6252215;28;20471;-65
2023/03/22 04:48:44;;;;;;;4.13;3.73;;;9.50;95.40;;;;;;6252940;28;20467;-66
2023/03/22 04:51:47;;;;;;;3.67;3.37;;;9.50;95.10;;;;;;6252467;28;20466;-65
2023/03/22 04:54:51;;;;;;;6.13;3.90;;;9.50;95.20;;;;;;6252328;28;20470;-64
2023/03/22 04:57:54;;;;;;;4.30;3.60;;;9.50;95.10;;;;;;6252140;28;20475;-66
2023/03/22 05:00:59;;;;;;;5.73;3.70;;;9.50;95.10;;;;;;6252207;28;20471;-65
2023/03/22 05:04:02;;;;;;;5.47;3.50;;;9.50;95.20;;;;;;6243634;28;20478;-66
2023/03/22 05:07:05;;;;;;;6.90;4.30;;;9.50;95.20;;;;;;6252032;28;20479;-65
2023/03/22 05:10:10;;;;;;;4.30;3.90;;;9.50;95.10;;;;;;6252000;28;20483;-66
2023/03/22 05:13:13;;;;;;;4.17;3.60;;;9.60;95.30;;;;;;6251869;28;20853;-65
2023/03/22 05:16:17;;;;;;;6.23;3.80;;;9.70;95.40;;;;;;6252514;28;20544;-66
2023/03/22 05:19:23;;;;;;;3.40;3.10;;;9.70;95.40;;;;;;6251297;28;20788;-66
2023/03/22 05:22:26;;;;;;;12.10;4.43;;;9.80;95.20;;;;;;6252047;28;20495;-65
2023/03/22 05:25:29;;;;;;;4.57;4.10;;;9.80;95.10;;;;;;6251949;28;20490;-65
2023/03/22 05:28:33;;;;;;;4.20;3.80;;;9.80;95.10;;;;;;6251643;28;20475;-65
2023/03/22 05:31:39;;;;;;;5.30;4.73;;;9.90;95.20;;;;;;6251682;28;20485;-65
2023/03/22 05:34:44;;;;;;;6.63;3.97;;;9.90;95.10;;;;;;6251673;28;20486;-64
2023/03/22 05:37:47;;;;;;;4.10;3.80;;;10.00;94.60;;;;;;6251694;28;20815;-65
2023/03/22 05:40:51;;;;;;;3.43;3.13;;;10.10;94.40;;;;;;6251512;28;20463;-65
2023/03/22 05:43:54;;;;;;;3.87;3.50;;;10.10;94.20;;;;;;6251276;28;20475;-65
2023/03/22 05:46:59;;;;;;;4.57;3.57;;;10.10;94.10;;;;;;6251262;28;20479;-64
2023/03/22 05:50:02;;;;;;;5.47;3.47;;;10.00;94.10;;;;;;6251310;28;20479;-66
2023/03/22 05:53:05;;;;;;;6.20;3.57;;;10.10;94.10;;;;;;6251354;28;20806;-65
2023/03/22 05:56:09;;;;;;;3.37;3.17;;;10.20;94.10;;;;;;6251580;28;20501;-64
2023/03/22 05:59:13;;;;;;;6.70;4.50;;;10.20;93.80;;;;;;6251204;28;20477;-65
2023/03/22 06:02:17;;;;;;;7.57;4.73;;;10.30;93.80;;;;;;6250719;28;20765;-65
2023/03/22 06:05:20;;;;;;;5.00;4.60;;;10.40;93.90;;;;;;6250302;28;20505;-64
2023/03/22 06:08:24;;;;;;;5.20;4.20;;;10.40;94.10;;;;;;6246103;28;20467;-64
2023/03/22 06:11:29;;;;;;;4.70;4.17;;;10.50;93.60;;;;;;6250108;28;20558;-65
2023/03/22 06:14:32;;;;;;;7.20;4.43;;;10.70;93.50;;;;;;6250481;28;20855;-64
2023/03/22 06:17:37;;;;;;;5.00;4.23;;;10.80;93.50;;;;;;6250374;28;20944;-65
2023/03/22 06:20:40;;;;;;;7.33;4.47;;;10.90;93.30;;;;;;6250697;28;20485;-65
2023/03/22 06:23:44;;;;;;;5.20;4.70;;;11.00;93.00;;;;;;6250816;28;20475;-65
2023/03/22 06:26:47;;;;;;;4.07;3.67;;;11.20;92.70;;;;;;6250069;28;20479;-65
2023/03/22 06:29:53;;;;;;;5.10;4.47;;;11.30;92.20;;;;;;6249796;28;20802;-65
2023/03/22 06:32:59;;;;;;;5.87;4.30;;;11.40;91.90;;;;;;6250116;28;20996;-65
2023/03/22 06:36:03;;;;;;;6.03;3.90;;;11.50;91.80;;;;;;6249912;28;21081;-64
2023/03/22 06:39:06;;;;;;;7.63;5.10;;;11.50;91.60;;;;;;6250104;28;20470;-65
2023/03/22 06:42:10;;;;;;;6.70;4.50;;;11.70;91.40;;;;;;6249925;28;20475;-65
2023/03/22 06:45:15;;;;;;;6.97;5.27;;;11.90;91.10;;;;;;6249787;28;20996;-60
2023/03/22 06:48:19;;;;;;;9.67;5.10;;;12.10;90.70;;;;;;6250129;28;20462;-65
2023/03/22 06:51:23;;;;;;;6.23;4.40;;;12.40;90.30;;;;;;6258556;28;20490;-61
2023/03/22 06:54:26;;;;;;;5.03;4.63;;;12.70;89.50;;;;;;6271360;28;20459;-61
2023/03/22 06:57:29;;;;;;;10.73;5.03;;;13.10;87.60;;;;;;6255480;28;20478;-61
2023/03/22 07:00:33;;;;;;;8.50;4.60;;;13.20;86.20;;;;;;6251030;28;20435;-59
2023/03/22 07:03:37;;;;;;;6.93;4.83;;;13.20;85.10;;;;;;6248530;28;20539;-60
2023/03/22 07:06:40;;;;;;;7.50;5.20;;;13.30;85.00;;;;;;6249199;28;20475;-61
2023/03/22 07:09:44;;;;;;;7.47;4.93;;;13.40;84.30;;;;;;6249296;28;20467;-60
2023/03/22 07:12:47;;;;;;;8.63;4.90;;;13.50;83.30;;;;;;6249406;28;20475;-61
2023/03/22 07:15:54;;;;;;;6.67;5.10;;;13.60;83.00;;;;;;6249057;28;20482;-61
2023/03/22 07:18:59;;;;;;;7.77;4.47;;;13.70;82.60;;;;;;6249071;28;20469;-61
2023/03/22 07:22:02;;;;;;;6.00;3.73;;;13.80;81.80;;;;;;6249531;28;20490;-61
2023/03/22 07:25:06;;;;;;;5.43;4.30;;;13.80;81.10;;;;;;6248991;28;20475;-62
2023/03/22 07:28:10;;;;;;;5.70;4.33;;;13.90;81.00;;;;;;6249595;28;20490;-61
2023/03/22 07:31:14;;;;;;;7.27;4.90;;;13.90;80.40;;;;;;6248542;28;20478;-61
2023/03/22 07:34:19;;;;;;;10.17;4.33;;;14.00;80.40;;;;;;6248295;28;20466;-61
2023/03/22 07:37:22;;;;;;;4.47;4.07;;;14.10;80.10;;;;;;6248556;28;20957;-61
2023/03/22 07:40:25;;;;;;;8.53;4.60;;;14.20;80.10;;;;;;6249062;28;20489;-61
2023/03/22 07:43:29;;;;;;;10.23;5.90;;;14.30;78.80;;;;;;6253123;28;20812;-61
2023/03/22 07:46:32;;;;;;;10.10;5.37;;;14.40;78.30;;;;;;6253656;28;20475;-61
2023/03/22 07:49:37;;;;;;;6.37;4.70;;;14.40;78.20;;;;;;6249997;28;20501;-61
2023/03/22 07:52:40;;;;;;;11.30;4.27;;;14.50;77.80;;;;;;6252953;28;20477;-61
2023/03/22 07:55:43;;;;;;;6.50;4.37;;;14.50;77.10;;;;;;6252741;28;20466;-61
2023/03/22 07:58:46;;;;;;;8.40;4.33;;;14.60;76.70;;;;;;6252455;28;20982;-61
2023/03/22 08:01:49;;;;;;;6.17;4.57;;;14.70;76.40;;;;;;6252927;28;20962;-61
2023/03/22 08:04:54;;;;;;;9.07;5.70;;;14.90;76.20;;;;;;6252182;28;20817;-61
2023/03/22 08:07:58;;;;;;;6.83;4.83;;;15.00;75.70;;;;;;6250283;28;20463;-61
2023/03/22 08:11:01;;;;;;;6.10;4.60;;;15.00;75.60;;;;;;6251504;28;20467;-61
2023/03/22 08:14:05;;;;;;;10.40;5.60;;;15.10;75.00;;;;;;6250645;28;20798;-61
2023/03/22 08:17:08;;;;;;;7.23;5.10;;;15.30;74.40;;;;;;6242584;28;20482;-61
2023/03/22 08:20:13;;;;;;;10.67;5.43;;;15.30;73.50;;;;;;6250980;28;20471;-61
2023/03/22 08:23:16;;;;;;;6.13;4.17;;;15.30;73.00;;;;;;6252436;28;20486;-60
2023/03/22 08:26:20;;;;;;;6.20;4.20;;;15.30;72.60;;;;;;6252845;28;20482;-61
2023/03/22 08:29:24;;;;;;;5.77;4.50;;;15.40;72.60;;;;;;6251364;28;20490;-61
2023/03/22 08:32:27;;;;;;;6.27;4.20;;;15.40;71.70;;;;;;6251203;28;20470;-61
2023/03/22 08:35:31;;;;;;;8.00;5.07;;;15.50;71.60;;;;;;6250612;28;20474;-61
2023/03/22 08:38:35;;;;;;;8.30;4.40;;;15.60;71.20;;;;;;6250629;28;20953;-61
2023/03/22 08:41:39;;;;;;;5.90;4.27;;;15.80;71.00;;;;;;6251390;28;20479;-61
2023/03/22 08:44:42;;;;;;;6.43;4.50;;;16.00;70.10;;;;;;6246563;28;20471;-61
2023/03/22 08:47:45;;;;;;;4.97;4.43;;;16.40;69.30;;;;;;6250730;28;20471;-61
2023/03/22 08:50:50;;;;;;;7.70;4.00;;;16.80;68.10;;;;;;6249541;28;20490;-61
2023/03/22 08:53:53;;;;;;;7.43;4.13;;;17.30;66.20;;;;;;6247921;28;20474;-61
2023/03/22 08:56:57;;;;;;;4.67;3.77;;;17.80;64.40;;;;;;6250111;28;20483;-62
2023/03/22 09:00:01;;;;;;;5.57;3.77;;;18.20;61.90;;;;;;6250299;28;20223;-62
2023/03/22 09:03:05;;;;;;;5.90;3.70;;;18.40;61.00;;;;;;6250085;28;20231;-62
2023/03/22 09:06:10;;;;;;;6.10;3.90;;;18.60;59.20;;;;;;6251483;28;20554;-61
2023/03/22 09:09:14;;;;;;;4.20;3.90;;;19.00;58.50;;;;;;6249575;28;20686;-63
2023/03/22 09:12:17;;;;;;;3.70;3.40;;;19.60;56.90;;;;;;6233732;28;20228;-62
2023/03/22 09:15:21;;;;;;;7.33;3.97;;;20.60;55.10;;;;;;6251311;28;20259;-62
2023/03/22 09:18:24;;;;;;;4.40;3.90;;;21.60;52.70;;;;;;6227027;28;20201;-62
2023/03/22 09:21:29;;;;;;;7.30;4.40;;;22.60;48.90;;;;;;6227021;28;20205;-62
2023/03/22 09:24:32;;;;;;;5.63;4.20;;;23.50;46.80;;;;;;6227655;28;20223;-63
2023/03/22 09:27:36;;;;;;;5.73;3.60;;;25.80;43.10;;;;;;6251100;28;20645;-62
2023/03/22 09:30:39;;;;;;;7.10;4.37;;;27.90;36.80;;;;;;6250971;28;20545;-62
2023/03/22 09:33:43;;;;;;;5.45;4.15;;;31.20;31.90;;;;;;6251272;28;20560;-62
2023/03/22 09:36:48;;;;;;;6.68;4.25;;;35.10;26.10;;;;;;6250669;28;20227;-64
2023/03/22 09:39:51;;;;;;;5.07;4.18;;;37.90;22.20;;;;;;6251457;28;20227;-64
2023/03/22 09:42:57;;;;;;;6.53;4.28;;;40.40;19.70;;;;;;6239951;28;20568;-63
2023/03/22 09:46:02;;;;;;;5.13;3.78;;;42.10;17.40;;;;;;6226161;28;20236;-67
2023/03/22 09:49:10;;;;;;;5.85;4.55;;;41.80;16.40;;;;;;6226568;28;20306;-67
2023/03/22 09:52:17;;;;;;;6.25;5.10;;;40.20;16.80;;;;;;6226307;28;20247;-68
2023/03/22 09:55:28;;;;;;;5.72;5.03;;;40.20;16.90;;;;;;6225988;28;20231;-65
2023/03/22 09:58:36;;;;;;;7.50;5.10;;;42.30;16.10;;;;;;6225975;28;20236;-63
2023/03/22 10:01:45;;;;;;;12.90;6.22;;;44.40;14.90;;;;;;6226245;28;20239;-67
2023/03/22 10:04:56;;;;;;;7.68;5.80;;;45.40;14.00;;;;;;6225643;28;20232;-66
2023/03/22 10:08:27;;;;;;;6.28;5.78;;;46.50;13.10;;;;;;6225808;28;20238;-67
2023/03/22 10:11:39;;;;;;;7.03;6.32;;;46.70;12.50;;;;;;6226588;28;20249;-66
2023/03/22 10:14:49;;;;;;;8.75;6.35;;;46.80;12.30;;;;;;6225565;28;20686;-66
2023/03/22 10:17:55;;;;;;;8.70;7.22;;;47.00;12.00;;;;;;6243678;28;20232;-62
2023/03/22 10:21:02;;;;;;;7.32;6.10;;;47.70;12.00;;;;;;6249648;28;20227;-63
2023/03/22 10:24:14;;;;;;;7.40;6.82;;;48.30;11.40;;;;;;6249808;28;20239;-64
2023/03/22 10:27:20;;;;;;;7.10;6.45;;;47.80;11.30;;;;;;6249692;28;20234;-64
2023/03/22 10:30:26;;;;;;;7.38;6.68;;;48.00;11.30;;;;;;6249802;28;20222;-64
2023/03/22 10:33:37;;;;;;;7.40;6.85;;;48.20;10.80;;;;;;6249874;28;20294;-64
2023/03/22 10:36:42;;;;;;;6.57;6.00;;;47.40;11.50;;;;;;6249782;28;20249;-64
2023/03/22 10:39:49;;;;;;;7.25;6.55;;;46.20;12.00;;;;;;6266458;28;20227;-66
2023/03/22 10:42:56;;;;;;;7.32;6.60;;;44.60;12.50;;;;;;6275027;28;20220;-68
2023/03/22 10:46:01;;;;;;;7.97;7.25;;;43.00;13.30;;;;;;6274305;28;20543;-67
2023/03/22 10:49:05;;;;;;;8.63;7.55;;;40.70;14.20;;;;;;6274439;28;20241;-63
2023/03/22 10:52:20;;;;;;;7.43;6.82;;;39.10;15.10;;;;;;6274148;28;20298;-66
2023/03/22 10:55:25;;;;;;;6.90;6.40;;;37.10;16.60;;;;;;6274137;28;20235;-65
2023/03/22 10:58:30;;;;;;;7.38;6.68;;;36.50;16.90;;;;;;6274081;28;20231;-65
2023/03/22 11:01:37;;;;;;;7.88;6.10;;;35.80;17.70;;;;;;6274202;28;20541;-64
2023/03/22 11:04:47;;;;;;;7.78;7.07;;;35.90;17.60;;;;;;6273818;28;20234;-63
2023/03/22 11:07:51;;;;;;;8.55;6.75;;;35.90;17.30;;;;;;6273663;28;20748;-63
2023/03/22 11:10:59;;;;;;;7.30;6.68;;;35.70;17.40;;;;;;6253662;28;20571;-63
2023/03/22 11:14:06;;;;;;;6.18;5.78;;;35.40;17.90;;;;;;6249099;28;20362;-64
2023/03/22 11:17:13;;;;;;;7.43;6.82;;;35.60;17.90;;;;;;6251589;28;20311;-63
2023/03/22 11:20:18;;;;;;;6.90;6.25;;;35.10;18.10;;;;;;6254262;28;20237;-66
2023/03/22 11:23:22;;;;;;;5.97;5.57;;;34.30;18.80;;;;;;6254399;28;20269;-65
2023/03/22 11:26:30;;;;;;;7.63;7.05;;;33.90;18.80;;;;;;6254145;28;20231;-66
2023/03/22 11:29:42;;;;;;;8.20;7.40;;;33.70;19.00;;;;;;6249792;28;20226;-64
2023/03/22 11:32:45;;;;;;;8.65;7.45;;;33.60;19.20;;;;;;6253373;28;20223;-63
2023/03/22 11:35:55;;;;;;;6.05;5.65;;;33.50;19.90;;;;;;6253222;28;20235;-64
2023/03/22 11:39:00;;;;;;;7.32;6.72;;;33.70;19.40;;;;;;6253409;28;20312;-64
2023/03/22 11:42:06;;;;;;;5.40;4.90;;;32.90;19.60;;;;;;6253389;28;20681;-64
2023/03/22 11:45:15;;;;;;;5.10;4.65;;;32.90;19.40;;;;;;6255505;28;20239;-64
2023/03/22 11:48:22;;;;;;;5.70;5.00;;;32.30;19.60;;;;;;6254142;28;20231;-64
2023/03/22 11:51:29;;;;;;;5.10;4.70;;;31.70;20.50;;;;;;6253712;28;20224;-64
2023/03/22 11:54:36;;;;;;;5.68;5.15;;;32.90;20.10;;;;;;6253509;28;20215;-64
2023/03/22 11:57:41;;;;;;;7.38;5.65;;;33.20;19.20;;;;;;6253310;28;20196;-64
2023/03/22 12:00:45;;;;;;;7.07;4.65;;;31.70;19.70;;;;;;6253310;28;20238;-64
2023/03/22 12:03:54;;;;;;;3.58;3.28;;;31.10;20.60;;;;;;6252996;28;20223;-64
2023/03/22 12:07:00;;;;;;;4.50;4.10;;;30.80;20.10;;;;;;6252945;28;20227;-65
2023/03/22 12:10:10;;;;;;;4.78;3.40;;;31.20;20.30;;;;;;6252748;28;20228;-65
2023/03/22 12:13:22;;;;;;;3.70;3.47;;;31.90;20.60;;;;;;6252847;28;20231;-64
2023/03/22 12:16:30;;;;;;;4.18;3.78;;;32.00;19.40;;;;;;6252092;28;20224;-65
2023/03/22 12:19:46;;;;;;;4.00;3.70;;;33.40;19.20;;;;;;6252894;28;20681;-64
2023/03/22 12:22:54;;;;;;;5.20;4.80;;;34.20;18.50;;;;;;6252987;28;20242;-65
2023/03/22 12:26:02;;;;;;;4.55;4.00;;;35.10;18.00;;;;;;6252751;28;20240;-64
2023/03/22 12:29:15;;;;;;;3.22;2.90;;;35.80;17.70;;;;;;6252270;28;20228;-65
2023/03/22 12:32:24;;;;;;;3.28;2.97;;;36.00;16.90;;;;;;6252318;28;20568;-64
2023/03/22 12:35:31;;;;;;;4.60;3.65;;;34.80;16.30;;;;;;6252825;28;20236;-65
2023/03/22 12:38:40;;;;;;;3.47;2.88;;;33.60;17.30;;;;;;6231689;28;20678;-65
2023/03/22 12:41:46;;;;;;;3.42;3.10;;;32.20;18.00;;;;;;6227502;28;20228;-65
2023/03/22 12:44:54;;;;;;;2.80;2.60;;;31.30;19.20;;;;;;6227324;28;20647;-65
2023/03/22 12:48:15;;;;;;;5.72;3.10;;;30.70;19.60;;;;;;6227678;28;20330;-65
2023/03/22 12:51:19;;;;;;;2.67;2.47;;;31.10;19.80;;;;;;6227246;28;20232;-65
2023/03/22 12:54:25;;;;;;;4.75;3.50;;;31.20;19.70;;;;;;6227886;28;20540;-65
2023/03/22 12:57:28;;;;;;;4.55;3.90;;;31.00;20.20;;;;;;6227470;28;20224;-65
2023/03/22 13:00:38;;;;;;;4.75;4.22;;;30.60;20.40;;;;;;6227598;28;20205;-64
2023/03/22 13:03:46;;;;;;;3.08;2.78;;;31.30;20.00;;;;;;6227553;28;20228;-64
2023/03/22 13:06:58;;;;;;;3.55;2.63;;;30.40;19.30;;;;;;6227259;28;20662;-66
2023/03/22 13:10:22;;;;;;;2.15;1.77;;;30.70;19.10;;;;;;6239076;28;20700;-63
2023/03/22 13:13:43;;;;;;;4.00;1.70;;;30.20;18.20;;;;;;6250935;28;20242;-63
2023/03/22 13:16:59;;;;;;;2.05;1.85;;;29.70;17.70;;;;;;6248392;28;20688;-63
2023/03/22 13:20:22;;;;;;;2.55;1.63;;;29.40;18.10;;;;;;6250614;28;20232;-63
2023/03/22 13:23:27;;;;;;;1.83;1.63;;;29.50;18.60;;;;;;6248448;28;20235;-62
2023/03/22 13:26:39;;;;;;;1.33;1.05;;;29.40;18.30;;;;;;6251105;28;20235;-62
2023/03/22 13:29:44;;;;;;;3.90;1.20;;;29.60;17.20;;;;;;6251002;28;20231;-61
2023/03/22 13:32:52;;;;;;;1.70;1.60;;;29.30;16.60;;;;;;6247580;28;20532;-62
2023/03/22 13:36:01;;;;;;;1.70;1.40;;;28.20;18.20;;;;;;6226079;28;20690;-63
2023/03/22 13:39:11;;;;;;;2.57;2.20;;;27.50;18.80;;;;;;6249691;28;20231;-64
2023/03/22 13:42:19;;;;;;;2.47;2.27;;;26.90;20.60;;;;;;6250856;28;20755;-62
2023/03/22 13:45:32;;;;;;;1.87;1.67;;;26.10;22.00;;;;;;6250579;28;20231;-62
2023/03/22 13:48:52;;;;;;;2.10;1.70;;;25.60;21.60;;;;;;6232451;28;20200;-65
2023/03/22 13:51:58;;;;;;;3.50;1.87;;;25.10;21.40;;;;;;6251045;28;22194;-65
2023/03/22 13:55:02;;;;;;;2.47;2.27;;;24.90;22.30;;;;;;6264262;28;20231;-64
2023/03/22 13:58:10;;;;;;;3.10;1.67;;;24.60;22.50;;;;;;6275882;28;20227;-65
2023/03/22 14:01:17;;;;;;;3.77;1.93;;;24.40;22.80;;;;;;6276201;28;20239;-62
2023/03/22 14:04:25;;;;;;;2.17;1.77;;;23.70;23.30;;;;;;6246004;28;20239;-65
2023/03/22 14:07:34;;;;;;;3.30;2.27;;;23.30;24.10;;;;;;6242734;28;20237;-63
2023/03/22 14:10:42;;;;;;;2.10;1.97;;;23.20;24.30;;;;;;6259676;28;20314;-63
2023/03/22 14:13:50;;;;;;;1.80;1.70;;;23.20;24.50;;;;;;6249909;28;20228;-63
2023/03/22 14:17:00;;;;;;;2.67;1.73;;;23.00;23.50;;;;;;6249390;28;20228;-63
2023/03/22 14:20:09;;;;;;;4.20;2.03;;;22.50;24.70;;;;;;6248785;28;20220;-65
2023/03/22 14:23:16;;;;;;;2.33;1.63;;;22.40;25.00;;;;;;6250036;28;20231;-65
2023/03/22 14:26:22;;;;;;;3.53;2.00;;;22.50;25.50;;;;;;6250264;28;20717;-65
2023/03/22 14:29:26;;;;;;;3.97;2.00;;;22.50;25.60;;;;;;6250247;28;20733;-65
2023/03/22 14:32:29;;;;;;;2.07;1.60;;;22.40;25.70;;;;;;6250200;28;20277;-65
2023/03/22 14:35:36;;;;;;;1.87;1.50;;;22.50;25.70;;;;;;6249987;28;20366;-65
2023/03/22 14:38:42;;;;;;;3.47;1.80;;;22.50;25.60;;;;;;6236447;28;20575;-62
2023/03/22 14:41:57;;;;;;;2.00;1.80;;;22.30;25.70;;;;;;6248765;28;20232;-62
2023/03/22 14:45:05;;;;;;;2.37;2.17;;;22.20;25.80;;;;;;6249003;28;20235;-61
2023/03/22 14:48:14;;;;;;;1.90;1.80;;;22.10;26.10;;;;;;6246914;28;20220;-61
2023/03/22 14:51:22;;;;;;;2.50;1.93;;;21.80;26.90;;;;;;6245253;28;20553;-62
2023/03/22 14:54:29;;;;;;;2.20;2.10;;;21.70;27.20;;;;;;6246706;28;20224;-61
2023/03/22 14:57:36;;;;;;;2.07;1.80;;;21.60;27.20;;;;;;6248295;28;20537;-66
2023/03/22 15:00:39;;;;;;;1.90;1.70;;;21.70;27.20;;;;;;6248842;28;20196;-64
2023/03/22 15:03:43;;;;;;;2.60;2.00;;;21.70;27.10;;;;;;6248696;28;20231;-65
2023/03/22 15:06:49;;;;;;;1.97;1.80;;;21.80;27.30;;;;;;6248713;28;20232;-65
2023/03/22 15:09:52;;;;;;;2.90;2.10;;;21.70;27.10;;;;;;6255058;28;20236;-65
2023/03/22 15:12:56;;;;;;;1.70;1.60;;;21.80;27.10;;;;;;6249486;28;20227;-64
2023/03/22 15:15:59;;;;;;;2.20;2.00;;;21.70;27.10;;;;;;6248464;28;20228;-66
2023/03/22 15:19:03;;;;;;;2.20;1.80;;;21.70;27.20;;;;;;6248350;28;20579;-63
2023/03/22 15:22:14;;;;;;;2.47;2.27;;;21.70;27.60;;;;;;6248832;28;20289;-65
2023/03/22 15:25:16;;;;;;;3.07;2.80;;;21.50;28.20;;;;;;6249097;28;20294;-64
2023/03/22 15:28:20;;;;;;;3.00;2.40;;;21.50;28.60;;;;;;6248401;28;20231;-65
2023/03/22 15:31:26;;;;;;;6.10;3.03;;;21.40;28.80;;;;;;6248748;28;20246;-64
2023/03/22 15:34:32;;;;;;;3.27;2.93;;;21.30;29.40;;;;;;6248993;28;20242;-64
2023/03/22 15:37:38;;;;;;;2.83;2.57;;;21.20;29.40;;;;;;6248256;28;20547;-63
2023/03/22 15:40:42;;;;;;;3.27;3.07;;;20.90;29.90;;;;;;6239832;28;20239;-66
2023/03/22 15:43:45;;;;;;;4.07;3.20;;;20.90;30.40;;;;;;6249008;28;20227;-65
2023/03/22 15:46:52;;;;;;;3.17;2.93;;;20.90;30.80;;;;;;6249666;28;20273;-66
2023/03/22 15:49:56;;;;;;;9.83;3.10;;;20.90;30.80;;;;;;6250352;28;20228;-65
2023/03/22 15:53:00;;;;;;;3.17;2.80;;;20.90;31.00;;;;;;6248335;28;20220;-63
2023/03/22 15:56:03;;;;;;;4.20;3.60;;;21.10;31.00;;;;;;6248785;28;20251;-61
2023/03/22 15:59:17;;;;;;;6.87;3.53;;;21.10;31.30;;;;;;6248392;28;20286;-60
2023/03/22 16:02:26;;;;;;;3.20;3.00;;;21.10;31.50;;;;;;6249967;28;20225;-61
2023/03/22 16:05:29;;;;;;;3.97;3.67;;;21.10;31.50;;;;;;6253034;28;20686;-65
2023/03/22 16:08:32;;;;;;;3.90;3.37;;;21.10;31.70;;;;;;6251982;28;20556;-64
2023/03/22 16:11:35;;;;;;;3.80;3.50;;;21.10;32.20;;;;;;6253161;28;20661;-64